sensor_id;sensor_type;location;lat;lon;timestamp;P1;durP1;ratioP1;P2;durP2;ratioP2
15616;SDS011;7908;51.688;7.130;2023-07-02T00:00:25;6.20;;;5.30;;
15616;SDS011;7908;51.688;7.130;2023-07-02T00:02:54;5.33;;;4.73;;
15616;SDS011;7908;51.688;7.130;2023-07-02T00:05:25;5.50;;;4.97;;
15616;SDS011;7908;51.688;7.130;2023-07-02T00:07:54;5.67;;;5.00;;
15616;SDS011;7908;51.688;7.130;2023-07-02T00:10:23;6.03;;;5.40;;
15616;SDS011;7908;51.688;7.130;2023-07-02T00:12:51;5.40;;;4.90;;
15616;SDS011;7908;51.688;7.130;2023-07-02T00:15:20;7.00;;;5.17;;
15616;SDS011;7908;51.688;7.130;2023-07-02T00:17:48;7.63;;;5.30;;
15616;SDS011;7908;51.688;7.130;2023-07-02T00:20:17;5.50;;;4.80;;
15616;SDS011;7908;51.688;7.130;2023-07-02T00:22:49;6.30;;;4.93;;
15616;SDS011;7908;51.688;7.130;2023-07-02T00:25:18;6.33;;;4.80;;
15616;SDS011;7908;51.688;7.130;2023-07-02T00:27:46;5.23;;;4.53;;
15616;SDS011;7908;51.688;7.130;2023-07-02T00:30:15;5.83;;;4.47;;
15616;SDS011;7908;51.688;7.130;2023-07-02T00:32:45;7.80;;;5.13;;
15616;SDS011;7908;51.688;7.130;2023-07-02T00:35:14;8.37;;;4.83;;
15616;SDS011;7908;51.688;7.130;2023-07-02T00:37:43;6.30;;;5.43;;
15616;SDS011;7908;51.688;7.130;2023-07-02T00:40:13;5.50;;;4.70;;
15616;SDS011;7908;51.688;7.130;2023-07-02T00:42:41;9.10;;;5.70;;
15616;SDS011;7908;51.688;7.130;2023-07-02T00:45:10;6.07;;;5.30;;
15616;SDS011;7908;51.688;7.130;2023-07-02T00:47:43;10.30;;;5.13;;
15616;SDS011;7908;51.688;7.130;2023-07-02T00:50:13;6.87;;;5.33;;
15616;SDS011;7908;51.688;7.130;2023-07-02T00:52:42;7.57;;;4.80;;
15616;SDS011;7908;51.688;7.130;2023-07-02T00:55:10;7.13;;;5.23;;
15616;SDS011;7908;51.688;7.130;2023-07-02T00:57:40;4.97;;;4.40;;
15616;SDS011;7908;51.688;7.130;2023-07-02T01:00:13;7.40;;;5.17;;
15616;SDS011;7908;51.688;7.130;2023-07-02T01:02:42;5.20;;;4.30;;
15616;SDS011;7908;51.688;7.130;2023-07-02T01:05:13;8.67;;;5.17;;
15616;SDS011;7908;51.688;7.130;2023-07-02T01:07:42;7.37;;;5.33;;
15616;SDS011;7908;51.688;7.130;2023-07-02T01:10:13;5.20;;;4.70;;
15616;SDS011;7908;51.688;7.130;2023-07-02T01:12:41;9.77;;;5.37;;
15616;SDS011;7908;51.688;7.130;2023-07-02T01:15:10;8.80;;;5.70;;
15616;SDS011;7908;51.688;7.130;2023-07-02T01:17:39;9.40;;;5.67;;
15616;SDS011;7908;51.688;7.130;2023-07-02T01:20:10;10.63;;;5.60;;
15616;SDS011;7908;51.688;7.130;2023-07-02T01:22:40;6.77;;;5.10;;
15616;SDS011;7908;51.688;7.130;2023-07-02T01:25:09;9.53;;;5.40;;
15616;SDS011;7908;51.688;7.130;2023-07-02T01:27:37;9.37;;;5.30;;
15616;SDS011;7908;51.688;7.130;2023-07-02T01:30:06;10.37;;;5.63;;
15616;SDS011;7908;51.688;7.130;2023-07-02T01:32:37;10.80;;;5.37;;
15616;SDS011;7908;51.688;7.130;2023-07-02T01:35:07;8.03;;;5.07;;
15616;SDS011;7908;51.688;7.130;2023-07-02T01:37:37;7.40;;;4.80;;
15616;SDS011;7908;51.688;7.130;2023-07-02T01:40:06;9.13;;;5.30;;
15616;SDS011;7908;51.688;7.130;2023-07-02T01:42:36;8.33;;;5.70;;
15616;SDS011;7908;51.688;7.130;2023-07-02T01:45:05;7.90;;;4.93;;
15616;SDS011;7908;51.688;7.130;2023-07-02T01:47:35;9.23;;;5.43;;
15616;SDS011;7908;51.688;7.130;2023-07-02T01:50:04;8.37;;;5.60;;
15616;SDS011;7908;51.688;7.130;2023-07-02T01:52:33;8.47;;;5.20;;
15616;SDS011;7908;51.688;7.130;2023-07-02T01:55:04;9.93;;;5.47;;
15616;SDS011;7908;51.688;7.130;2023-07-02T01:57:33;8.93;;;5.30;;
15616;SDS011;7908;51.688;7.130;2023-07-02T02:00:02;10.93;;;5.40;;
15616;SDS011;7908;51.688;7.130;2023-07-02T02:02:31;8.87;;;5.10;;
15616;SDS011;7908;51.688;7.130;2023-07-02T02:04:59;13.20;;;5.33;;
15616;SDS011;7908;51.688;7.130;2023-07-02T02:07:28;13.50;;;5.50;;
15616;SDS011;7908;51.688;7.130;2023-07-02T02:09:57;12.17;;;5.80;;
15616;SDS011;7908;51.688;7.130;2023-07-02T02:12:27;12.20;;;6.10;;
15616;SDS011;7908;51.688;7.130;2023-07-02T02:14:56;10.60;;;6.00;;
15616;SDS011;7908;51.688;7.130;2023-07-02T02:17:25;9.93;;;5.83;;
15616;SDS011;7908;51.688;7.130;2023-07-02T02:19:54;13.77;;;5.70;;
15616;SDS011;7908;51.688;7.130;2023-07-02T02:22:22;12.53;;;6.43;;
15616;SDS011;7908;51.688;7.130;2023-07-02T02:24:51;10.67;;;5.07;;
15616;SDS011;7908;51.688;7.130;2023-07-02T02:27:19;12.17;;;5.90;;
15616;SDS011;7908;51.688;7.130;2023-07-02T02:29:49;11.33;;;5.53;;
15616;SDS011;7908;51.688;7.130;2023-07-02T02:32:17;11.73;;;5.73;;
15616;SDS011;7908;51.688;7.130;2023-07-02T02:34:48;11.03;;;6.20;;
15616;SDS011;7908;51.688;7.130;2023-07-02T02:37:16;10.70;;;5.87;;
15616;SDS011;7908;51.688;7.130;2023-07-02T02:39:45;7.73;;;5.50;;
15616;SDS011;7908;51.688;7.130;2023-07-02T02:42:14;9.40;;;5.73;;
15616;SDS011;7908;51.688;7.130;2023-07-02T02:44:43;9.97;;;5.87;;
15616;SDS011;7908;51.688;7.130;2023-07-02T02:47:12;12.67;;;6.23;;
15616;SDS011;7908;51.688;7.130;2023-07-02T02:49:42;12.30;;;6.20;;
15616;SDS011;7908;51.688;7.130;2023-07-02T02:52:11;12.67;;;6.33;;
15616;SDS011;7908;51.688;7.130;2023-07-02T02:54:41;13.73;;;6.37;;
15616;SDS011;7908;51.688;7.130;2023-07-02T02:57:09;13.37;;;7.50;;
15616;SDS011;7908;51.688;7.130;2023-07-02T02:59:38;13.47;;;7.30;;
15616;SDS011;7908;51.688;7.130;2023-07-02T03:02:06;11.77;;;7.63;;
15616;SDS011;7908;51.688;7.130;2023-07-02T03:04:37;10.77;;;7.23;;
15616;SDS011;7908;51.688;7.130;2023-07-02T03:07:06;13.83;;;7.80;;
15616;SDS011;7908;51.688;7.130;2023-07-02T03:09:35;13.10;;;7.67;;
15616;SDS011;7908;51.688;7.130;2023-07-02T03:12:03;12.37;;;7.97;;
15616;SDS011;7908;51.688;7.130;2023-07-02T03:14:32;16.53;;;8.07;;
15616;SDS011;7908;51.688;7.130;2023-07-02T03:17:02;17.47;;;8.20;;
15616;SDS011;7908;51.688;7.130;2023-07-02T03:19:30;16.70;;;7.70;;
15616;SDS011;7908;51.688;7.130;2023-07-02T03:22:01;16.73;;;7.77;;
15616;SDS011;7908;51.688;7.130;2023-07-02T03:24:30;13.10;;;7.27;;
15616;SDS011;7908;51.688;7.130;2023-07-02T03:26:59;15.70;;;7.67;;
15616;SDS011;7908;51.688;7.130;2023-07-02T03:29:27;14.00;;;7.60;;
15616;SDS011;7908;51.688;7.130;2023-07-02T03:31:56;14.67;;;7.67;;
15616;SDS011;7908;51.688;7.130;2023-07-02T03:34:24;12.57;;;6.73;;
15616;SDS011;7908;51.688;7.130;2023-07-02T03:36:53;13.97;;;7.13;;
15616;SDS011;7908;51.688;7.130;2023-07-02T03:39:23;16.97;;;7.43;;
15616;SDS011;7908;51.688;7.130;2023-07-02T03:41:52;16.27;;;7.17;;
15616;SDS011;7908;51.688;7.130;2023-07-02T03:44:21;15.57;;;6.87;;
15616;SDS011;7908;51.688;7.130;2023-07-02T03:46:49;12.17;;;6.90;;
15616;SDS011;7908;51.688;7.130;2023-07-02T03:49:18;12.50;;;7.07;;
15616;SDS011;7908;51.688;7.130;2023-07-02T03:51:46;13.43;;;6.83;;
15616;SDS011;7908;51.688;7.130;2023-07-02T03:54:15;13.93;;;6.87;;
15616;SDS011;7908;51.688;7.130;2023-07-02T03:56:45;16.43;;;6.50;;
15616;SDS011;7908;51.688;7.130;2023-07-02T03:59:14;11.67;;;6.67;;
15616;SDS011;7908;51.688;7.130;2023-07-02T04:01:43;14.57;;;6.37;;
15616;SDS011;7908;51.688;7.130;2023-07-02T04:04:11;12.67;;;6.33;;
15616;SDS011;7908;51.688;7.130;2023-07-02T04:06:42;14.43;;;6.00;;
15616;SDS011;7908;51.688;7.130;2023-07-02T04:09:10;13.70;;;6.73;;
15616;SDS011;7908;51.688;7.130;2023-07-02T04:11:39;12.80;;;6.43;;
15616;SDS011;7908;51.688;7.130;2023-07-02T04:14:09;17.47;;;6.73;;
15616;SDS011;7908;51.688;7.130;2023-07-02T04:16:37;13.13;;;5.93;;
15616;SDS011;7908;51.688;7.130;2023-07-02T04:19:06;15.67;;;6.40;;
15616;SDS011;7908;51.688;7.130;2023-07-02T04:21:35;13.80;;;6.77;;
15616;SDS011;7908;51.688;7.130;2023-07-02T04:24:06;12.83;;;5.73;;
15616;SDS011;7908;51.688;7.130;2023-07-02T04:26:36;12.93;;;6.53;;
15616;SDS011;7908;51.688;7.130;2023-07-02T04:29:30;15.87;;;6.30;;
15616;SDS011;7908;51.688;7.130;2023-07-02T04:32:00;14.20;;;6.43;;
15616;SDS011;7908;51.688;7.130;2023-07-02T04:34:29;14.20;;;6.30;;
15616;SDS011;7908;51.688;7.130;2023-07-02T04:36:57;15.70;;;6.70;;
15616;SDS011;7908;51.688;7.130;2023-07-02T04:39:28;12.23;;;5.90;;
15616;SDS011;7908;51.688;7.130;2023-07-02T04:41:57;14.50;;;6.30;;
15616;SDS011;7908;51.688;7.130;2023-07-02T04:44:26;13.20;;;6.77;;
15616;SDS011;7908;51.688;7.130;2023-07-02T04:47:00;14.47;;;6.13;;
15616;SDS011;7908;51.688;7.130;2023-07-02T04:49:29;11.90;;;6.73;;
15616;SDS011;7908;51.688;7.130;2023-07-02T04:51:59;13.07;;;6.03;;
15616;SDS011;7908;51.688;7.130;2023-07-02T04:54:27;15.40;;;6.53;;
15616;SDS011;7908;51.688;7.130;2023-07-02T04:56:56;13.80;;;5.77;;
15616;SDS011;7908;51.688;7.130;2023-07-02T04:59:25;12.67;;;5.83;;
15616;SDS011;7908;51.688;7.130;2023-07-02T05:01:55;12.93;;;6.00;;
15616;SDS011;7908;51.688;7.130;2023-07-02T05:04:24;13.40;;;6.30;;
15616;SDS011;7908;51.688;7.130;2023-07-02T05:06:53;12.40;;;6.13;;
15616;SDS011;7908;51.688;7.130;2023-07-02T05:09:21;13.63;;;6.20;;
15616;SDS011;7908;51.688;7.130;2023-07-02T05:11:49;12.63;;;6.00;;
15616;SDS011;7908;51.688;7.130;2023-07-02T05:14:18;17.20;;;7.33;;
15616;SDS011;7908;51.688;7.130;2023-07-02T05:16:47;14.53;;;6.93;;
15616;SDS011;7908;51.688;7.130;2023-07-02T05:19:17;11.23;;;6.57;;
15616;SDS011;7908;51.688;7.130;2023-07-02T05:21:46;11.63;;;6.57;;
15616;SDS011;7908;51.688;7.130;2023-07-02T05:24:15;10.73;;;6.57;;
15616;SDS011;7908;51.688;7.130;2023-07-02T05:26:43;14.10;;;6.83;;
15616;SDS011;7908;51.688;7.130;2023-07-02T05:29:12;14.00;;;6.73;;
15616;SDS011;7908;51.688;7.130;2023-07-02T05:31:40;13.70;;;6.77;;
15616;SDS011;7908;51.688;7.130;2023-07-02T05:34:09;14.60;;;6.37;;
15616;SDS011;7908;51.688;7.130;2023-07-02T05:36:39;17.80;;;8.23;;
15616;SDS011;7908;51.688;7.130;2023-07-02T05:39:08;14.23;;;7.37;;
15616;SDS011;7908;51.688;7.130;2023-07-02T05:41:36;15.67;;;8.80;;
15616;SDS011;7908;51.688;7.130;2023-07-02T05:44:05;14.47;;;8.60;;
15616;SDS011;7908;51.688;7.130;2023-07-02T05:46:38;18.60;;;9.67;;
15616;SDS011;7908;51.688;7.130;2023-07-02T05:49:07;19.97;;;10.37;;
15616;SDS011;7908;51.688;7.130;2023-07-02T05:51:35;18.23;;;10.03;;
15616;SDS011;7908;51.688;7.130;2023-07-02T05:54:05;18.77;;;10.70;;
15616;SDS011;7908;51.688;7.130;2023-07-02T05:56:34;20.97;;;10.90;;
15616;SDS011;7908;51.688;7.130;2023-07-02T05:59:03;16.50;;;10.43;;
15616;SDS011;7908;51.688;7.130;2023-07-02T06:01:31;21.90;;;9.80;;
15616;SDS011;7908;51.688;7.130;2023-07-02T06:04:00;19.30;;;9.57;;
15616;SDS011;7908;51.688;7.130;2023-07-02T06:06:30;16.40;;;8.93;;
15616;SDS011;7908;51.688;7.130;2023-07-02T06:08:59;20.80;;;9.37;;
15616;SDS011;7908;51.688;7.130;2023-07-02T06:11:29;16.33;;;8.67;;
15616;SDS011;7908;51.688;7.130;2023-07-02T06:13:57;19.47;;;8.43;;
15616;SDS011;7908;51.688;7.130;2023-07-02T06:16:26;17.23;;;8.10;;
15616;SDS011;7908;51.688;7.130;2023-07-02T06:18:55;17.83;;;7.83;;
15616;SDS011;7908;51.688;7.130;2023-07-02T06:21:25;17.53;;;8.23;;
15616;SDS011;7908;51.688;7.130;2023-07-02T06:23:56;17.67;;;8.97;;
15616;SDS011;7908;51.688;7.130;2023-07-02T06:26:26;16.20;;;7.97;;
15616;SDS011;7908;51.688;7.130;2023-07-02T06:28:55;17.63;;;8.00;;
15616;SDS011;7908;51.688;7.130;2023-07-02T06:31:25;18.20;;;7.83;;
15616;SDS011;7908;51.688;7.130;2023-07-02T06:33:57;15.20;;;7.73;;
15616;SDS011;7908;51.688;7.130;2023-07-02T06:36:26;17.83;;;7.97;;
15616;SDS011;7908;51.688;7.130;2023-07-02T06:38:55;15.40;;;7.88;;
15616;SDS011;7908;51.688;7.130;2023-07-02T06:41:24;16.58;;;7.50;;
15616;SDS011;7908;51.688;7.130;2023-07-02T06:43:55;15.20;;;7.90;;
15616;SDS011;7908;51.688;7.130;2023-07-02T06:46:26;17.73;;;8.40;;
15616;SDS011;7908;51.688;7.130;2023-07-02T06:48:55;16.48;;;8.48;;
15616;SDS011;7908;51.688;7.130;2023-07-02T06:51:25;18.35;;;8.52;;
15616;SDS011;7908;51.688;7.130;2023-07-02T06:53:55;17.55;;;8.23;;
15616;SDS011;7908;51.688;7.130;2023-07-02T06:56:24;17.92;;;8.00;;
15616;SDS011;7908;51.688;7.130;2023-07-02T06:58:57;17.40;;;8.57;;
15616;SDS011;7908;51.688;7.130;2023-07-02T07:01:26;18.95;;;7.93;;
15616;SDS011;7908;51.688;7.130;2023-07-02T07:03:55;14.02;;;7.53;;
15616;SDS011;7908;51.688;7.130;2023-07-02T07:06:24;17.15;;;7.78;;
15616;SDS011;7908;51.688;7.130;2023-07-02T07:08:52;14.55;;;7.15;;
15616;SDS011;7908;51.688;7.130;2023-07-02T07:11:21;16.08;;;7.75;;
15616;SDS011;7908;51.688;7.130;2023-07-02T07:13:50;15.18;;;7.70;;
15616;SDS011;7908;51.688;7.130;2023-07-02T07:16:20;16.52;;;7.72;;
15616;SDS011;7908;51.688;7.130;2023-07-02T07:18:49;17.98;;;8.10;;
15616;SDS011;7908;51.688;7.130;2023-07-02T07:21:18;16.45;;;7.63;;
15616;SDS011;7908;51.688;7.130;2023-07-02T07:23:47;16.33;;;8.07;;
15616;SDS011;7908;51.688;7.130;2023-07-02T07:26:15;15.10;;;7.95;;
15616;SDS011;7908;51.688;7.130;2023-07-02T07:28:44;18.67;;;7.70;;
15616;SDS011;7908;51.688;7.130;2023-07-02T07:31:13;18.83;;;7.78;;
15616;SDS011;7908;51.688;7.130;2023-07-02T07:33:43;15.13;;;6.95;;
15616;SDS011;7908;51.688;7.130;2023-07-02T07:36:12;13.80;;;6.85;;
15616;SDS011;7908;51.688;7.130;2023-07-02T07:38:42;12.65;;;6.75;;
15616;SDS011;7908;51.688;7.130;2023-07-02T07:41:11;16.27;;;7.07;;
15616;SDS011;7908;51.688;7.130;2023-07-02T07:43:39;19.27;;;6.88;;
15616;SDS011;7908;51.688;7.130;2023-07-02T07:46:09;15.75;;;7.03;;
15616;SDS011;7908;51.688;7.130;2023-07-02T07:48:38;14.52;;;7.13;;
15616;SDS011;7908;51.688;7.130;2023-07-02T07:51:08;12.85;;;6.55;;
15616;SDS011;7908;51.688;7.130;2023-07-02T07:53:37;16.02;;;6.40;;
15616;SDS011;7908;51.688;7.130;2023-07-02T07:56:06;20.90;;;7.22;;
15616;SDS011;7908;51.688;7.130;2023-07-02T07:58:35;18.20;;;7.30;;
15616;SDS011;7908;51.688;7.130;2023-07-02T08:01:03;14.30;;;7.03;;
15616;SDS011;7908;51.688;7.130;2023-07-02T08:03:32;14.70;;;6.78;;
15616;SDS011;7908;51.688;7.130;2023-07-02T08:06:05;13.75;;;7.28;;
15616;SDS011;7908;51.688;7.130;2023-07-02T08:08:36;12.82;;;6.90;;
15616;SDS011;7908;51.688;7.130;2023-07-02T08:11:05;15.13;;;6.82;;
15616;SDS011;7908;51.688;7.130;2023-07-02T08:13:36;14.40;;;6.43;;
15616;SDS011;7908;51.688;7.130;2023-07-02T08:16:05;12.52;;;6.80;;
15616;SDS011;7908;51.688;7.130;2023-07-02T08:18:36;16.02;;;6.80;;
15616;SDS011;7908;51.688;7.130;2023-07-02T08:21:04;12.55;;;6.78;;
15616;SDS011;7908;51.688;7.130;2023-07-02T08:23:33;13.38;;;6.85;;
15616;SDS011;7908;51.688;7.130;2023-07-02T08:26:03;13.20;;;6.82;;
15616;SDS011;7908;51.688;7.130;2023-07-02T08:28:35;13.77;;;6.97;;
15616;SDS011;7908;51.688;7.130;2023-07-02T08:31:05;15.52;;;7.32;;
15616;SDS011;7908;51.688;7.130;2023-07-02T08:33:34;14.82;;;6.47;;
15616;SDS011;7908;51.688;7.130;2023-07-02T08:36:06;15.70;;;6.78;;
15616;SDS011;7908;51.688;7.130;2023-07-02T08:38:35;13.65;;;6.65;;
15616;SDS011;7908;51.688;7.130;2023-07-02T08:41:07;14.95;;;6.97;;
15616;SDS011;7908;51.688;7.130;2023-07-02T08:43:36;16.23;;;6.60;;
15616;SDS011;7908;51.688;7.130;2023-07-02T08:46:06;17.10;;;6.15;;
15616;SDS011;7908;51.688;7.130;2023-07-02T08:48:35;13.32;;;5.82;;
15616;SDS011;7908;51.688;7.130;2023-07-02T08:51:04;14.23;;;6.18;;
15616;SDS011;7908;51.688;7.130;2023-07-02T08:53:33;12.23;;;5.68;;
15616;SDS011;7908;51.688;7.130;2023-07-02T08:56:03;12.63;;;5.47;;
15616;SDS011;7908;51.688;7.130;2023-07-02T08:58:35;11.88;;;5.07;;
15616;SDS011;7908;51.688;7.130;2023-07-02T09:01:12;10.93;;;5.28;;
15616;SDS011;7908;51.688;7.130;2023-07-02T09:03:44;11.15;;;5.03;;
15616;SDS011;7908;51.688;7.130;2023-07-02T09:06:13;11.95;;;5.68;;
15616;SDS011;7908;51.688;7.130;2023-07-02T09:08:45;11.75;;;5.18;;
15616;SDS011;7908;51.688;7.130;2023-07-02T09:11:14;8.18;;;4.32;;
15616;SDS011;7908;51.688;7.130;2023-07-02T09:13:48;11.30;;;5.03;;
15616;SDS011;7908;51.688;7.130;2023-07-02T09:16:22;9.43;;;5.03;;
15616;SDS011;7908;51.688;7.130;2023-07-02T09:18:58;8.57;;;4.80;;
15616;SDS011;7908;51.688;7.130;2023-07-02T09:21:38;9.57;;;4.38;;
15616;SDS011;7908;51.688;7.130;2023-07-02T09:24:14;9.82;;;4.65;;
15616;SDS011;7908;51.688;7.130;2023-07-02T09:26:47;6.63;;;4.15;;
15616;SDS011;7908;51.688;7.130;2023-07-02T09:29:21;10.65;;;4.70;;
15616;SDS011;7908;51.688;7.130;2023-07-02T09:31:51;11.73;;;4.75;;
15616;SDS011;7908;51.688;7.130;2023-07-02T09:34:27;9.15;;;4.68;;
15616;SDS011;7908;51.688;7.130;2023-07-02T09:36:57;9.45;;;4.93;;
15616;SDS011;7908;51.688;7.130;2023-07-02T09:39:27;11.98;;;4.80;;
15616;SDS011;7908;51.688;7.130;2023-07-02T09:41:58;10.23;;;4.60;;
15616;SDS011;7908;51.688;7.130;2023-07-02T09:44:30;8.57;;;5.00;;
15616;SDS011;7908;51.688;7.130;2023-07-02T09:47:01;9.73;;;5.40;;
15616;SDS011;7908;51.688;7.130;2023-07-02T09:49:32;12.02;;;5.28;;
15616;SDS011;7908;51.688;7.130;2023-07-02T09:52:03;9.85;;;5.15;;
15616;SDS011;7908;51.688;7.130;2023-07-02T09:54:35;8.55;;;5.60;;
15616;SDS011;7908;51.688;7.130;2023-07-02T09:57:05;9.43;;;4.90;;
15616;SDS011;7908;51.688;7.130;2023-07-02T09:59:37;11.23;;;4.45;;
15616;SDS011;7908;51.688;7.130;2023-07-02T10:02:09;11.00;;;5.18;;
15616;SDS011;7908;51.688;7.130;2023-07-02T10:04:42;10.50;;;4.90;;
15616;SDS011;7908;51.688;7.130;2023-07-02T10:07:25;10.70;;;4.97;;
15616;SDS011;7908;51.688;7.130;2023-07-02T10:10:04;10.70;;;5.30;;
15616;SDS011;7908;51.688;7.130;2023-07-02T10:12:45;14.02;;;6.32;;
15616;SDS011;7908;51.688;7.130;2023-07-02T10:15:25;9.63;;;4.85;;
15616;SDS011;7908;51.688;7.130;2023-07-02T10:17:56;10.90;;;4.82;;
15616;SDS011;7908;51.688;7.130;2023-07-02T10:20:36;11.68;;;5.13;;
15616;SDS011;7908;51.688;7.130;2023-07-02T10:23:11;13.98;;;5.60;;
15616;SDS011;7908;51.688;7.130;2023-07-02T10:25:41;11.35;;;5.68;;
15616;SDS011;7908;51.688;7.130;2023-07-02T10:28:14;11.07;;;4.60;;
15616;SDS011;7908;51.688;7.130;2023-07-02T10:30:45;10.35;;;5.07;;
15616;SDS011;7908;51.688;7.130;2023-07-02T10:33:15;8.75;;;5.10;;
15616;SDS011;7908;51.688;7.130;2023-07-02T10:35:48;10.07;;;5.38;;
15616;SDS011;7908;51.688;7.130;2023-07-02T10:38:19;10.98;;;4.80;;
15616;SDS011;7908;51.688;7.130;2023-07-02T10:40:55;7.95;;;4.85;;
15616;SDS011;7908;51.688;7.130;2023-07-02T10:43:25;14.73;;;5.45;;
15616;SDS011;7908;51.688;7.130;2023-07-02T10:45:58;10.73;;;4.50;;
15616;SDS011;7908;51.688;7.130;2023-07-02T10:48:30;10.95;;;5.10;;
15616;SDS011;7908;51.688;7.130;2023-07-02T10:51:01;10.15;;;4.85;;
15616;SDS011;7908;51.688;7.130;2023-07-02T10:53:45;8.85;;;4.88;;
15616;SDS011;7908;51.688;7.130;2023-07-02T10:56:16;10.15;;;4.65;;
15616;SDS011;7908;51.688;7.130;2023-07-02T10:58:49;11.13;;;4.75;;
15616;SDS011;7908;51.688;7.130;2023-07-02T11:01:23;11.00;;;4.82;;
15616;SDS011;7908;51.688;7.130;2023-07-02T11:03:58;9.18;;;4.90;;
15616;SDS011;7908;51.688;7.130;2023-07-02T11:06:29;8.70;;;4.60;;
15616;SDS011;7908;51.688;7.130;2023-07-02T11:09:02;11.07;;;4.85;;
15616;SDS011;7908;51.688;7.130;2023-07-02T11:11:48;9.60;;;4.70;;
15616;SDS011;7908;51.688;7.130;2023-07-02T11:14:28;10.90;;;4.35;;
15616;SDS011;7908;51.688;7.130;2023-07-02T11:17:03;8.85;;;4.40;;
15616;SDS011;7908;51.688;7.130;2023-07-02T11:19:36;9.20;;;4.43;;
15616;SDS011;7908;51.688;7.130;2023-07-02T11:22:05;9.73;;;4.85;;
15616;SDS011;7908;51.688;7.130;2023-07-02T11:24:39;9.32;;;4.85;;
15616;SDS011;7908;51.688;7.130;2023-07-02T11:27:08;8.25;;;4.30;;
15616;SDS011;7908;51.688;7.130;2023-07-02T11:29:58;8.00;;;4.10;;
15616;SDS011;7908;51.688;7.130;2023-07-02T11:32:49;8.85;;;4.53;;
15616;SDS011;7908;51.688;7.130;2023-07-02T11:35:19;10.50;;;4.80;;
15616;SDS011;7908;51.688;7.130;2023-07-02T11:37:52;8.70;;;4.03;;
15616;SDS011;7908;51.688;7.130;2023-07-02T11:40:23;8.27;;;3.83;;
15616;SDS011;7908;51.688;7.130;2023-07-02T11:42:59;8.40;;;4.28;;
15616;SDS011;7908;51.688;7.130;2023-07-02T11:45:34;7.43;;;3.95;;
15616;SDS011;7908;51.688;7.130;2023-07-02T11:48:07;7.63;;;4.32;;
15616;SDS011;7908;51.688;7.130;2023-07-02T11:50:38;10.20;;;4.55;;
15616;SDS011;7908;51.688;7.130;2023-07-02T11:53:22;10.88;;;4.03;;
15616;SDS011;7908;51.688;7.130;2023-07-02T11:55:53;10.10;;;4.90;;
15616;SDS011;7908;51.688;7.130;2023-07-02T11:58:22;8.07;;;4.18;;
15616;SDS011;7908;51.688;7.130;2023-07-02T12:00:51;8.90;;;4.35;;
15616;SDS011;7908;51.688;7.130;2023-07-02T12:03:24;7.68;;;4.40;;
15616;SDS011;7908;51.688;7.130;2023-07-02T12:05:54;9.43;;;4.20;;
15616;SDS011;7908;51.688;7.130;2023-07-02T12:08:28;8.32;;;4.15;;
15616;SDS011;7908;51.688;7.130;2023-07-02T12:10:57;10.75;;;5.60;;
15616;SDS011;7908;51.688;7.130;2023-07-02T12:13:28;8.50;;;4.55;;
15616;SDS011;7908;51.688;7.130;2023-07-02T12:15:58;12.18;;;4.57;;
15616;SDS011;7908;51.688;7.130;2023-07-02T12:18:32;8.38;;;4.32;;
15616;SDS011;7908;51.688;7.130;2023-07-02T12:21:05;7.82;;;4.63;;
15616;SDS011;7908;51.688;7.130;2023-07-02T12:23:34;9.93;;;5.55;;
15616;SDS011;7908;51.688;7.130;2023-07-02T12:26:03;7.45;;;4.47;;
15616;SDS011;7908;51.688;7.130;2023-07-02T12:28:34;10.48;;;4.57;;
15616;SDS011;7908;51.688;7.130;2023-07-02T12:31:04;9.85;;;5.07;;
15616;SDS011;7908;51.688;7.130;2023-07-02T12:33:35;13.13;;;4.88;;
15616;SDS011;7908;51.688;7.130;2023-07-02T12:36:04;7.15;;;3.97;;
15616;SDS011;7908;51.688;7.130;2023-07-02T12:38:37;9.80;;;5.20;;
15616;SDS011;7908;51.688;7.130;2023-07-02T12:41:11;7.95;;;4.43;;
15616;SDS011;7908;51.688;7.130;2023-07-02T12:43:40;14.85;;;4.63;;
15616;SDS011;7908;51.688;7.130;2023-07-02T12:46:15;8.98;;;4.65;;
15616;SDS011;7908;51.688;7.130;2023-07-02T12:48:51;9.15;;;4.43;;
15616;SDS011;7908;51.688;7.130;2023-07-02T12:51:21;10.23;;;5.05;;
15616;SDS011;7908;51.688;7.130;2023-07-02T12:53:52;10.93;;;4.47;;
15616;SDS011;7908;51.688;7.130;2023-07-02T12:56:22;7.88;;;4.32;;
15616;SDS011;7908;51.688;7.130;2023-07-02T12:58:56;10.95;;;4.80;;
15616;SDS011;7908;51.688;7.130;2023-07-02T13:01:26;13.43;;;5.07;;
15616;SDS011;7908;51.688;7.130;2023-07-02T13:03:58;9.15;;;4.65;;
15616;SDS011;7908;51.688;7.130;2023-07-02T13:06:31;11.80;;;5.00;;
15616;SDS011;7908;51.688;7.130;2023-07-02T13:09:08;11.45;;;4.75;;
15616;SDS011;7908;51.688;7.130;2023-07-02T13:11:37;11.10;;;4.40;;
15616;SDS011;7908;51.688;7.130;2023-07-02T13:14:09;10.35;;;4.80;;
15616;SDS011;7908;51.688;7.130;2023-07-02T13:16:38;8.63;;;4.97;;
15616;SDS011;7908;51.688;7.130;2023-07-02T13:19:08;8.23;;;4.70;;
15616;SDS011;7908;51.688;7.130;2023-07-02T13:21:37;11.63;;;5.00;;
15616;SDS011;7908;51.688;7.130;2023-07-02T13:24:06;11.85;;;5.20;;
15616;SDS011;7908;51.688;7.130;2023-07-02T13:26:35;12.25;;;4.60;;
15616;SDS011;7908;51.688;7.130;2023-07-02T13:29:04;8.68;;;4.57;;
15616;SDS011;7908;51.688;7.130;2023-07-02T13:31:39;10.60;;;4.60;;
15616;SDS011;7908;51.688;7.130;2023-07-02T13:34:09;9.30;;;4.88;;
15616;SDS011;7908;51.688;7.130;2023-07-02T13:36:38;9.15;;;5.07;;
15616;SDS011;7908;51.688;7.130;2023-07-02T13:39:10;8.45;;;4.55;;
15616;SDS011;7908;51.688;7.130;2023-07-02T13:41:40;11.63;;;4.97;;
15616;SDS011;7908;51.688;7.130;2023-07-02T13:44:09;10.90;;;4.80;;
15616;SDS011;7908;51.688;7.130;2023-07-02T13:46:40;8.98;;;5.22;;
15616;SDS011;7908;51.688;7.130;2023-07-02T13:49:15;9.32;;;5.00;;
15616;SDS011;7908;51.688;7.130;2023-07-02T13:51:44;11.43;;;5.40;;
15616;SDS011;7908;51.688;7.130;2023-07-02T13:54:13;13.48;;;5.75;;
15616;SDS011;7908;51.688;7.130;2023-07-02T13:56:50;12.57;;;5.38;;
15616;SDS011;7908;51.688;7.130;2023-07-02T13:59:21;9.07;;;4.93;;
15616;SDS011;7908;51.688;7.130;2023-07-02T14:01:54;8.93;;;4.68;;
15616;SDS011;7908;51.688;7.130;2023-07-02T14:04:27;9.70;;;5.28;;
15616;SDS011;7908;51.688;7.130;2023-07-02T14:06:59;11.05;;;5.68;;
15616;SDS011;7908;51.688;7.130;2023-07-02T14:09:28;11.93;;;5.45;;
15616;SDS011;7908;51.688;7.130;2023-07-02T14:12:08;11.63;;;5.60;;
15616;SDS011;7908;51.688;7.130;2023-07-02T14:14:40;8.07;;;5.25;;
15616;SDS011;7908;51.688;7.130;2023-07-02T14:17:09;10.85;;;6.28;;
15616;SDS011;7908;51.688;7.130;2023-07-02T14:19:41;12.02;;;6.65;;
15616;SDS011;7908;51.688;7.130;2023-07-02T14:22:11;11.90;;;5.28;;
15616;SDS011;7908;51.688;7.130;2023-07-02T14:24:40;12.32;;;5.40;;
15616;SDS011;7908;51.688;7.130;2023-07-02T14:27:09;13.02;;;5.43;;
15616;SDS011;7908;51.688;7.130;2023-07-02T14:29:39;13.23;;;5.47;;
15616;SDS011;7908;51.688;7.130;2023-07-02T14:32:08;12.98;;;5.95;;
15616;SDS011;7908;51.688;7.130;2023-07-02T14:34:37;10.48;;;5.53;;
15616;SDS011;7908;51.688;7.130;2023-07-02T14:37:06;13.15;;;5.80;;
15616;SDS011;7908;51.688;7.130;2023-07-02T14:39:35;13.38;;;5.60;;
15616;SDS011;7908;51.688;7.130;2023-07-02T14:42:07;10.45;;;5.43;;
15616;SDS011;7908;51.688;7.130;2023-07-02T14:44:36;12.30;;;5.55;;
15616;SDS011;7908;51.688;7.130;2023-07-02T14:47:07;12.38;;;5.45;;
15616;SDS011;7908;51.688;7.130;2023-07-02T14:49:36;11.77;;;5.35;;
15616;SDS011;7908;51.688;7.130;2023-07-02T14:52:06;9.07;;;5.18;;
15616;SDS011;7908;51.688;7.130;2023-07-02T14:54:35;9.95;;;4.88;;
15616;SDS011;7908;51.688;7.130;2023-07-02T14:57:04;14.00;;;5.75;;
15616;SDS011;7908;51.688;7.130;2023-07-02T14:59:36;12.10;;;5.05;;
15616;SDS011;7908;51.688;7.130;2023-07-02T15:02:07;8.77;;;4.70;;
15616;SDS011;7908;51.688;7.130;2023-07-02T15:04:36;13.52;;;5.18;;
15616;SDS011;7908;51.688;7.130;2023-07-02T15:07:05;9.32;;;5.30;;
15616;SDS011;7908;51.688;7.130;2023-07-02T15:09:35;10.32;;;4.95;;
15616;SDS011;7908;51.688;7.130;2023-07-02T15:12:04;9.10;;;5.05;;